sensor_id;sensor_type;location;lat;lon;timestamp;P1;durP1;ratioP1;P2;durP2;ratioP2
10565;SDS011;5331;48.148;16.326;2023-02-18T00:00:26;1.73;;;1.63;;
10565;SDS011;5331;48.148;16.326;2023-02-18T00:02:53;1.70;;;1.60;;
10565;SDS011;5331;48.148;16.326;2023-02-18T00:05:20;2.22;;;1.80;;
10565;SDS011;5331;48.148;16.326;2023-02-18T00:07:48;1.60;;;1.50;;
10565;SDS011;5331;48.148;16.326;2023-02-18T00:10:15;3.10;;;1.80;;
10565;SDS011;5331;48.148;16.326;2023-02-18T00:12:44;2.10;;;1.90;;
10565;SDS011;5331;48.148;16.326;2023-02-18T00:15:11;1.70;;;1.60;;
10565;SDS011;5331;48.148;16.326;2023-02-18T00:17:38;1.90;;;1.80;;
10565;SDS011;5331;48.148;16.326;2023-02-18T00:20:06;1.60;;;1.52;;
10565;SDS011;5331;48.148;16.326;2023-02-18T00:22:33;2.10;;;1.70;;
10565;SDS011;5331;48.148;16.326;2023-02-18T00:25:00;1.80;;;1.70;;
10565;SDS011;5331;48.148;16.326;2023-02-18T00:27:27;2.30;;;2.00;;
10565;SDS011;5331;48.148;16.326;2023-02-18T00:29:56;1.90;;;1.80;;
10565;SDS011;5331;48.148;16.326;2023-02-18T00:32:24;2.50;;;1.80;;
10565;SDS011;5331;48.148;16.326;2023-02-18T00:34:51;2.03;;;1.70;;
10565;SDS011;5331;48.148;16.326;2023-02-18T00:37:18;1.75;;;1.65;;
10565;SDS011;5331;48.148;16.326;2023-02-18T00:39:45;2.45;;;1.95;;
10565;SDS011;5331;48.148;16.326;2023-02-18T00:42:12;1.65;;;1.50;;
10565;SDS011;5331;48.148;16.326;2023-02-18T00:44:39;1.63;;;1.52;;
10565;SDS011;5331;48.148;16.326;2023-02-18T00:47:08;1.70;;;1.60;;
10565;SDS011;5331;48.148;16.326;2023-02-18T00:49:35;1.58;;;1.45;;
10565;SDS011;5331;48.148;16.326;2023-02-18T00:52:02;1.98;;;1.70;;
10565;SDS011;5331;48.148;16.326;2023-02-18T00:54:29;1.77;;;1.67;;
10565;SDS011;5331;48.148;16.326;2023-02-18T00:56:56;1.83;;;1.70;;
10565;SDS011;5331;48.148;16.326;2023-02-18T00:59:24;1.33;;;1.33;;
10565;SDS011;5331;48.148;16.326;2023-02-18T01:01:51;1.70;;;1.60;;
10565;SDS011;5331;48.148;16.326;2023-02-18T01:04:19;2.45;;;1.80;;
10565;SDS011;5331;48.148;16.326;2023-02-18T01:06:46;1.88;;;1.75;;
10565;SDS011;5331;48.148;16.326;2023-02-18T01:09:13;2.38;;;1.67;;
10565;SDS011;5331;48.148;16.326;2023-02-18T01:11:40;1.80;;;1.70;;
10565;SDS011;5331;48.148;16.326;2023-02-18T01:14:07;2.05;;;1.85;;
10565;SDS011;5331;48.148;16.326;2023-02-18T01:16:34;1.65;;;1.55;;
10565;SDS011;5331;48.148;16.326;2023-02-18T01:19:01;1.70;;;1.60;;
10565;SDS011;5331;48.148;16.326;2023-02-18T01:21:29;1.98;;;1.60;;
10565;SDS011;5331;48.148;16.326;2023-02-18T01:23:56;1.85;;;1.70;;
10565;SDS011;5331;48.148;16.326;2023-02-18T01:26:23;1.80;;;1.70;;
10565;SDS011;5331;48.148;16.326;2023-02-18T01:28:50;1.73;;;1.50;;
10565;SDS011;5331;48.148;16.326;2023-02-18T01:31:17;1.92;;;1.50;;
10565;SDS011;5331;48.148;16.326;2023-02-18T01:33:44;1.85;;;1.75;;
10565;SDS011;5331;48.148;16.326;2023-02-18T01:36:11;1.70;;;1.60;;
10565;SDS011;5331;48.148;16.326;2023-02-18T01:38:40;1.77;;;1.67;;
10565;SDS011;5331;48.148;16.326;2023-02-18T01:41:07;1.92;;;1.83;;
10565;SDS011;5331;48.148;16.326;2023-02-18T01:43:34;1.60;;;1.50;;
10565;SDS011;5331;48.148;16.326;2023-02-18T01:48:48;1.80;;;1.70;;
10565;SDS011;5331;48.148;16.326;2023-02-18T01:51:19;1.83;;;1.73;;
10565;SDS011;5331;48.148;16.326;2023-02-18T01:53:53;1.95;;;1.85;;
10565;SDS011;5331;48.148;16.326;2023-02-18T01:56:25;1.70;;;1.60;;
10565;SDS011;5331;48.148;16.326;2023-02-18T01:58:55;2.00;;;1.90;;
10565;SDS011;5331;48.148;16.326;2023-02-18T02:01:24;1.80;;;1.70;;
10565;SDS011;5331;48.148;16.326;2023-02-18T02:03:52;2.50;;;2.08;;
10565;SDS011;5331;48.148;16.326;2023-02-18T02:06:20;1.90;;;1.80;;
10565;SDS011;5331;48.148;16.326;2023-02-18T02:08:49;1.98;;;1.70;;
10565;SDS011;5331;48.148;16.326;2023-02-18T02:11:22;1.80;;;1.70;;
10565;SDS011;5331;48.148;16.326;2023-02-18T02:14:02;1.70;;;1.60;;
10565;SDS011;5331;48.148;16.326;2023-02-18T02:16:38;2.35;;;1.80;;
10565;SDS011;5331;48.148;16.326;2023-02-18T02:19:17;1.92;;;1.70;;
10565;SDS011;5331;48.148;16.326;2023-02-18T02:25:18;1.88;;;1.58;;
10565;SDS011;5331;48.148;16.326;2023-02-18T02:28:05;1.98;;;1.80;;
10565;SDS011;5331;48.148;16.326;2023-02-18T02:31:07;2.45;;;1.92;;
10565;SDS011;5331;48.148;16.326;2023-02-18T02:34:23;1.95;;;1.85;;
10565;SDS011;5331;48.148;16.326;2023-02-18T02:37:08;1.80;;;1.70;;
10565;SDS011;5331;48.148;16.326;2023-02-18T02:39:42;2.85;;;1.90;;
10565;SDS011;5331;48.148;16.326;2023-02-18T02:42:18;1.90;;;1.70;;
10565;SDS011;5331;48.148;16.326;2023-02-18T02:44:53;1.90;;;1.80;;
10565;SDS011;5331;48.148;16.326;2023-02-18T02:47:26;1.85;;;1.75;;
10565;SDS011;5331;48.148;16.326;2023-02-18T02:50:00;2.08;;;1.73;;
10565;SDS011;5331;48.148;16.326;2023-02-18T02:52:32;1.60;;;1.50;;
10565;SDS011;5331;48.148;16.326;2023-02-18T02:55:04;2.78;;;2.00;;
10565;SDS011;5331;48.148;16.326;2023-02-18T02:57:48;1.80;;;1.70;;
10565;SDS011;5331;48.148;16.326;2023-02-18T03:00:18;1.60;;;1.50;;
10565;SDS011;5331;48.148;16.326;2023-02-18T03:02:59;2.20;;;1.80;;
10565;SDS011;5331;48.148;16.326;2023-02-18T03:05:46;1.92;;;1.77;;
10565;SDS011;5331;48.148;16.326;2023-02-18T03:08:37;1.70;;;1.60;;
10565;SDS011;5331;48.148;16.326;2023-02-18T03:11:09;2.17;;;1.60;;
10565;SDS011;5331;48.148;16.326;2023-02-18T03:13:50;1.73;;;1.63;;
10565;SDS011;5331;48.148;16.326;2023-02-18T03:16:25;1.83;;;1.70;;
10565;SDS011;5331;48.148;16.326;2023-02-18T03:18:58;2.00;;;1.90;;
10565;SDS011;5331;48.148;16.326;2023-02-18T03:21:33;2.10;;;1.90;;
10565;SDS011;5331;48.148;16.326;2023-02-18T03:24:05;2.17;;;1.77;;
10565;SDS011;5331;48.148;16.326;2023-02-18T03:26:36;2.40;;;1.65;;
10565;SDS011;5331;48.148;16.326;2023-02-18T03:29:09;2.35;;;2.08;;
10565;SDS011;5331;48.148;16.326;2023-02-18T03:31:38;1.98;;;1.88;;
10565;SDS011;5331;48.148;16.326;2023-02-18T03:34:08;3.47;;;2.08;;
10565;SDS011;5331;48.148;16.326;2023-02-18T03:36:39;1.80;;;1.70;;
10565;SDS011;5331;48.148;16.326;2023-02-18T03:39:07;2.08;;;1.98;;
10565;SDS011;5331;48.148;16.326;2023-02-18T03:41:39;2.03;;;1.85;;
10565;SDS011;5331;48.148;16.326;2023-02-18T03:44:07;2.20;;;2.10;;
10565;SDS011;5331;48.148;16.326;2023-02-18T03:46:34;2.10;;;2.00;;
10565;SDS011;5331;48.148;16.326;2023-02-18T03:49:03;2.08;;;1.88;;
10565;SDS011;5331;48.148;16.326;2023-02-18T03:51:30;1.80;;;1.70;;
10565;SDS011;5331;48.148;16.326;2023-02-18T03:53:59;3.35;;;2.00;;
10565;SDS011;5331;48.148;16.326;2023-02-18T03:56:26;1.77;;;1.67;;
10565;SDS011;5331;48.148;16.326;2023-02-18T03:58:53;1.90;;;1.80;;
10565;SDS011;5331;48.148;16.326;2023-02-18T04:01:20;1.75;;;1.65;;
10565;SDS011;5331;48.148;16.326;2023-02-18T04:03:47;1.95;;;1.85;;
10565;SDS011;5331;48.148;16.326;2023-02-18T04:06:14;2.08;;;1.85;;
10565;SDS011;5331;48.148;16.326;2023-02-18T04:08:41;2.15;;;1.50;;
10565;SDS011;5331;48.148;16.326;2023-02-18T04:11:09;1.58;;;1.48;;
10565;SDS011;5331;48.148;16.326;2023-02-18T04:13:36;1.65;;;1.55;;
10565;SDS011;5331;48.148;16.326;2023-02-18T04:16:03;2.45;;;1.52;;
10565;SDS011;5331;48.148;16.326;2023-02-18T04:18:31;1.80;;;1.70;;
10565;SDS011;5331;48.148;16.326;2023-02-18T04:20:58;1.90;;;1.70;;
10565;SDS011;5331;48.148;16.326;2023-02-18T04:23:25;1.60;;;1.50;;
10565;SDS011;5331;48.148;16.326;2023-02-18T04:25:52;1.75;;;1.63;;
10565;SDS011;5331;48.148;16.326;2023-02-18T04:28:21;1.73;;;1.40;;
10565;SDS011;5331;48.148;16.326;2023-02-18T04:30:48;1.50;;;1.40;;
10565;SDS011;5331;48.148;16.326;2023-02-18T04:33:15;1.50;;;1.40;;
10565;SDS011;5331;48.148;16.326;2023-02-18T04:35:42;1.70;;;1.60;;
10565;SDS011;5331;48.148;16.326;2023-02-18T04:38:09;1.50;;;1.40;;
10565;SDS011;5331;48.148;16.326;2023-02-18T04:40:37;1.30;;;1.30;;
10565;SDS011;5331;48.148;16.326;2023-02-18T04:43:04;1.65;;;1.55;;
10565;SDS011;5331;48.148;16.326;2023-02-18T04:45:32;1.40;;;1.30;;
10565;SDS011;5331;48.148;16.326;2023-02-18T04:47:59;1.35;;;1.30;;
10565;SDS011;5331;48.148;16.326;2023-02-18T04:50:26;1.40;;;1.30;;
10565;SDS011;5331;48.148;16.326;2023-02-18T04:52:53;1.23;;;1.23;;
10565;SDS011;5331;48.148;16.326;2023-02-18T04:55:21;1.30;;;1.30;;
10565;SDS011;5331;48.148;16.326;2023-02-18T04:57:48;1.33;;;1.30;;
10565;SDS011;5331;48.148;16.326;2023-02-18T05:00:17;1.85;;;1.20;;
10565;SDS011;5331;48.148;16.326;2023-02-18T05:02:46;1.30;;;1.30;;
10565;SDS011;5331;48.148;16.326;2023-02-18T05:05:15;1.48;;;1.38;;
10565;SDS011;5331;48.148;16.326;2023-02-18T05:07:42;1.30;;;1.30;;
10565;SDS011;5331;48.148;16.326;2023-02-18T05:10:09;1.35;;;1.25;;
10565;SDS011;5331;48.148;16.326;2023-02-18T05:12:39;1.20;;;1.20;;
10565;SDS011;5331;48.148;16.326;2023-02-18T05:15:07;1.40;;;1.30;;
10565;SDS011;5331;48.148;16.326;2023-02-18T05:17:34;1.30;;;1.30;;
10565;SDS011;5331;48.148;16.326;2023-02-18T05:20:04;1.20;;;1.20;;
10565;SDS011;5331;48.148;16.326;2023-02-18T05:22:33;1.30;;;1.20;;
10565;SDS011;5331;48.148;16.326;2023-02-18T05:24:59;1.30;;;1.30;;
10565;SDS011;5331;48.148;16.326;2023-02-18T05:27:26;1.20;;;1.20;;
10565;SDS011;5331;48.148;16.326;2023-02-18T05:29:53;1.40;;;1.40;;
10565;SDS011;5331;48.148;16.326;2023-02-18T05:32:20;1.10;;;1.10;;
10565;SDS011;5331;48.148;16.326;2023-02-18T05:34:48;1.48;;;1.20;;
10565;SDS011;5331;48.148;16.326;2023-02-18T05:37:16;1.45;;;1.27;;
10565;SDS011;5331;48.148;16.326;2023-02-18T05:39:43;1.55;;;1.45;;
10565;SDS011;5331;48.148;16.326;2023-02-18T05:42:10;1.30;;;1.30;;
10565;SDS011;5331;48.148;16.326;2023-02-18T05:44:37;1.70;;;1.60;;
10565;SDS011;5331;48.148;16.326;2023-02-18T05:47:04;1.30;;;1.20;;
10565;SDS011;5331;48.148;16.326;2023-02-18T05:49:33;1.20;;;1.20;;
10565;SDS011;5331;48.148;16.326;2023-02-18T05:52:00;1.00;;;1.00;;
10565;SDS011;5331;48.148;16.326;2023-02-18T05:54:29;1.02;;;1.02;;
10565;SDS011;5331;48.148;16.326;2023-02-18T05:56:56;1.42;;;1.30;;
10565;SDS011;5331;48.148;16.326;2023-02-18T05:59:24;1.25;;;1.25;;
10565;SDS011;5331;48.148;16.326;2023-02-18T06:01:51;1.73;;;1.40;;
10565;SDS011;5331;48.148;16.326;2023-02-18T06:04:18;1.17;;;1.17;;
10565;SDS011;5331;48.148;16.326;2023-02-18T06:06:45;1.20;;;1.10;;
10565;SDS011;5331;48.148;16.326;2023-02-18T06:09:12;1.38;;;1.17;;
10565;SDS011;5331;48.148;16.326;2023-02-18T06:11:40;1.30;;;1.30;;
10565;SDS011;5331;48.148;16.326;2023-02-18T06:14:08;1.40;;;1.30;;
10565;SDS011;5331;48.148;16.326;2023-02-18T06:16:35;1.20;;;1.20;;
10565;SDS011;5331;48.148;16.326;2023-02-18T06:19:01;1.30;;;1.30;;
10565;SDS011;5331;48.148;16.326;2023-02-18T06:21:29;1.88;;;1.20;;
10565;SDS011;5331;48.148;16.326;2023-02-18T06:23:56;2.00;;;1.17;;
10565;SDS011;5331;48.148;16.326;2023-02-18T06:26:23;1.33;;;1.23;;
10565;SDS011;5331;48.148;16.326;2023-02-18T06:28:51;1.45;;;1.35;;
10565;SDS011;5331;48.148;16.326;2023-02-18T06:31:18;4.00;;;3.55;;
10565;SDS011;5331;48.148;16.326;2023-02-18T06:33:45;2.17;;;2.08;;
10565;SDS011;5331;48.148;16.326;2023-02-18T06:36:12;1.10;;;1.10;;
10565;SDS011;5331;48.148;16.326;2023-02-18T06:38:40;1.30;;;1.30;;
10565;SDS011;5331;48.148;16.326;2023-02-18T06:41:09;1.90;;;1.33;;
10565;SDS011;5331;48.148;16.326;2023-02-18T06:43:37;1.60;;;1.35;;
10565;SDS011;5331;48.148;16.326;2023-02-18T06:46:06;1.38;;;1.38;;
10565;SDS011;5331;48.148;16.326;2023-02-18T06:48:33;1.75;;;1.25;;
10565;SDS011;5331;48.148;16.326;2023-02-18T06:51:00;1.45;;;1.35;;
10565;SDS011;5331;48.148;16.326;2023-02-18T06:53:28;1.27;;;1.27;;
10565;SDS011;5331;48.148;16.326;2023-02-18T06:55:55;1.27;;;1.27;;
10565;SDS011;5331;48.148;16.326;2023-02-18T06:58:23;1.55;;;1.45;;
10565;SDS011;5331;48.148;16.326;2023-02-18T07:00:50;1.30;;;1.30;;
10565;SDS011;5331;48.148;16.326;2023-02-18T07:03:18;1.40;;;1.30;;
10565;SDS011;5331;48.148;16.326;2023-02-18T07:05:45;1.60;;;1.50;;
10565;SDS011;5331;48.148;16.326;2023-02-18T07:08:12;1.48;;;1.30;;
10565;SDS011;5331;48.148;16.326;2023-02-18T07:10:39;1.30;;;1.30;;
10565;SDS011;5331;48.148;16.326;2023-02-18T07:13:06;1.50;;;1.40;;
10565;SDS011;5331;48.148;16.326;2023-02-18T07:15:34;1.40;;;1.40;;
10565;SDS011;5331;48.148;16.326;2023-02-18T07:18:00;1.38;;;1.38;;
10565;SDS011;5331;48.148;16.326;2023-02-18T07:20:29;1.58;;;1.48;;
10565;SDS011;5331;48.148;16.326;2023-02-18T07:22:56;1.50;;;1.40;;
10565;SDS011;5331;48.148;16.326;2023-02-18T07:25:23;1.30;;;1.30;;
10565;SDS011;5331;48.148;16.326;2023-02-18T07:27:50;1.45;;;1.38;;
10565;SDS011;5331;48.148;16.326;2023-02-18T07:30:26;2.20;;;2.00;;
10565;SDS011;5331;48.148;16.326;2023-02-18T07:32:53;2.10;;;2.00;;
10565;SDS011;5331;48.148;16.326;2023-02-18T07:35:20;1.70;;;1.60;;
10565;SDS011;5331;48.148;16.326;2023-02-18T07:37:48;1.77;;;1.67;;
10565;SDS011;5331;48.148;16.326;2023-02-18T07:40:16;2.28;;;2.13;;
10565;SDS011;5331;48.148;16.326;2023-02-18T07:42:45;1.90;;;1.80;;
10565;SDS011;5331;48.148;16.326;2023-02-18T07:45:12;1.80;;;1.70;;
10565;SDS011;5331;48.148;16.326;2023-02-18T07:47:39;1.60;;;1.50;;
10565;SDS011;5331;48.148;16.326;2023-02-18T07:50:07;1.55;;;1.45;;
10565;SDS011;5331;48.148;16.326;2023-02-18T07:52:35;1.70;;;1.60;;
10565;SDS011;5331;48.148;16.326;2023-02-18T07:55:03;1.80;;;1.70;;
10565;SDS011;5331;48.148;16.326;2023-02-18T07:57:31;1.52;;;1.42;;
10565;SDS011;5331;48.148;16.326;2023-02-18T08:00:18;1.67;;;1.60;;
10565;SDS011;5331;48.148;16.326;2023-02-18T08:02:45;1.60;;;1.50;;
10565;SDS011;5331;48.148;16.326;2023-02-18T08:05:12;1.63;;;1.45;;
10565;SDS011;5331;48.148;16.326;2023-02-18T08:07:39;1.75;;;1.65;;
10565;SDS011;5331;48.148;16.326;2023-02-18T08:10:07;2.92;;;2.63;;
10565;SDS011;5331;48.148;16.326;2023-02-18T08:12:35;1.63;;;1.52;;
10565;SDS011;5331;48.148;16.326;2023-02-18T08:15:03;1.58;;;1.48;;
10565;SDS011;5331;48.148;16.326;2023-02-18T08:17:30;1.80;;;1.70;;
10565;SDS011;5331;48.148;16.326;2023-02-18T08:19:57;2.45;;;1.70;;
10565;SDS011;5331;48.148;16.326;2023-02-18T08:22:24;1.63;;;1.50;;
10565;SDS011;5331;48.148;16.326;2023-02-18T08:24:52;2.05;;;1.80;;
10565;SDS011;5331;48.148;16.326;2023-02-18T08:27:22;1.60;;;1.50;;
10565;SDS011;5331;48.148;16.326;2023-02-18T08:29:49;1.70;;;1.60;;
10565;SDS011;5331;48.148;16.326;2023-02-18T08:32:16;1.70;;;1.60;;
10565;SDS011;5331;48.148;16.326;2023-02-18T08:34:43;1.83;;;1.73;;
10565;SDS011;5331;48.148;16.326;2023-02-18T08:37:10;1.70;;;1.60;;
10565;SDS011;5331;48.148;16.326;2023-02-18T08:39:37;1.80;;;1.70;;
10565;SDS011;5331;48.148;16.326;2023-02-18T08:42:05;1.85;;;1.70;;
10565;SDS011;5331;48.148;16.326;2023-02-18T08:44:33;2.90;;;1.60;;
10565;SDS011;5331;48.148;16.326;2023-02-18T08:47:00;1.98;;;1.88;;
10565;SDS011;5331;48.148;16.326;2023-02-18T08:49:27;1.80;;;1.70;;
10565;SDS011;5331;48.148;16.326;2023-02-18T08:51:54;1.77;;;1.60;;
10565;SDS011;5331;48.148;16.326;2023-02-18T08:54:21;2.55;;;1.77;;
10565;SDS011;5331;48.148;16.326;2023-02-18T08:56:48;1.80;;;1.70;;
10565;SDS011;5331;48.148;16.326;2023-02-18T08:59:15;1.80;;;1.70;;
10565;SDS011;5331;48.148;16.326;2023-02-18T09:01:43;1.60;;;1.50;;
10565;SDS011;5331;48.148;16.326;2023-02-18T09:04:10;1.60;;;1.50;;
10565;SDS011;5331;48.148;16.326;2023-02-18T09:06:38;1.70;;;1.60;;
10565;SDS011;5331;48.148;16.326;2023-02-18T09:09:05;1.70;;;1.60;;
10565;SDS011;5331;48.148;16.326;2023-02-18T09:11:33;3.25;;;1.70;;
10565;SDS011;5331;48.148;16.326;2023-02-18T09:14:01;1.60;;;1.50;;
10565;SDS011;5331;48.148;16.326;2023-02-18T09:16:28;1.50;;;1.38;;
10565;SDS011;5331;48.148;16.326;2023-02-18T09:18:57;1.70;;;1.60;;
10565;SDS011;5331;48.148;16.326;2023-02-18T09:21:24;2.22;;;1.55;;
10565;SDS011;5331;48.148;16.326;2023-02-18T09:23:51;1.73;;;1.55;;
10565;SDS011;5331;48.148;16.326;2023-02-18T09:26:19;1.70;;;1.60;;
10565;SDS011;5331;48.148;16.326;2023-02-18T09:28:47;1.67;;;1.58;;
10565;SDS011;5331;48.148;16.326;2023-02-18T09:31:16;1.70;;;1.60;;
10565;SDS011;5331;48.148;16.326;2023-02-18T09:33:45;1.70;;;1.60;;
10565;SDS011;5331;48.148;16.326;2023-02-18T09:36:16;1.70;;;1.60;;
10565;SDS011;5331;48.148;16.326;2023-02-18T09:38:44;1.70;;;1.60;;
10565;SDS011;5331;48.148;16.326;2023-02-18T09:41:14;1.40;;;1.40;;
10565;SDS011;5331;48.148;16.326;2023-02-18T09:43:50;1.77;;;1.67;;
10565;SDS011;5331;48.148;16.326;2023-02-18T09:46:21;1.65;;;1.55;;
10565;SDS011;5331;48.148;16.326;2023-02-18T09:48:51;1.70;;;1.60;;
10565;SDS011;5331;48.148;16.326;2023-02-18T09:51:20;1.80;;;1.70;;
10565;SDS011;5331;48.148;16.326;2023-02-18T09:53:47;1.77;;;1.67;;
10565;SDS011;5331;48.148;16.326;2023-02-18T09:56:25;1.75;;;1.65;;
10565;SDS011;5331;48.148;16.326;2023-02-18T09:58:54;2.10;;;1.70;;
10565;SDS011;5331;48.148;16.326;2023-02-18T10:01:24;1.80;;;1.70;;
10565;SDS011;5331;48.148;16.326;2023-02-18T10:03:57;1.70;;;1.60;;
10565;SDS011;5331;48.148;16.326;2023-02-18T10:06:29;1.63;;;1.52;;
10565;SDS011;5331;48.148;16.326;2023-02-18T10:08:58;1.80;;;1.70;;
10565;SDS011;5331;48.148;16.326;2023-02-18T10:11:29;1.60;;;1.50;;
10565;SDS011;5331;48.148;16.326;2023-02-18T10:13:57;1.92;;;1.77;;
10565;SDS011;5331;48.148;16.326;2023-02-18T10:16:27;1.70;;;1.60;;
10565;SDS011;5331;48.148;16.326;2023-02-18T10:18:58;1.60;;;1.50;;
10565;SDS011;5331;48.148;16.326;2023-02-18T10:21:32;1.60;;;1.50;;
10565;SDS011;5331;48.148;16.326;2023-02-18T10:24:00;2.10;;;1.90;;
10565;SDS011;5331;48.148;16.326;2023-02-18T10:26:38;1.50;;;1.40;;
10565;SDS011;5331;48.148;16.326;2023-02-18T10:29:08;1.40;;;1.30;;
10565;SDS011;5331;48.148;16.326;2023-02-18T10:31:41;1.80;;;1.50;;
10565;SDS011;5331;48.148;16.326;2023-02-18T10:34:16;2.03;;;1.50;;
10565;SDS011;5331;48.148;16.326;2023-02-18T10:36:53;1.60;;;1.48;;
10565;SDS011;5331;48.148;16.326;2023-02-18T10:39:26;1.60;;;1.50;;
10565;SDS011;5331;48.148;16.326;2023-02-18T10:42:05;2.08;;;1.50;;
10565;SDS011;5331;48.148;16.326;2023-02-18T10:44:46;1.30;;;1.30;;
10565;SDS011;5331;48.148;16.326;2023-02-18T10:47:26;1.40;;;1.40;;
10565;SDS011;5331;48.148;16.326;2023-02-18T10:50:03;1.20;;;1.20;;
10565;SDS011;5331;48.148;16.326;2023-02-18T10:52:37;1.50;;;1.40;;
10565;SDS011;5331;48.148;16.326;2023-02-18T10:55:08;1.45;;;1.35;;
10565;SDS011;5331;48.148;16.326;2023-02-18T10:57:44;1.50;;;1.40;;
10565;SDS011;5331;48.148;16.326;2023-02-18T11:00:17;1.75;;;1.65;;
10565;SDS011;5331;48.148;16.326;2023-02-18T11:03:12;2.67;;;1.75;;
10565;SDS011;5331;48.148;16.326;2023-02-18T11:05:42;1.70;;;1.60;;
10565;SDS011;5331;48.148;16.326;2023-02-18T11:08:13;1.52;;;1.45;;
10565;SDS011;5331;48.148;16.326;2023-02-18T11:10:45;1.83;;;1.40;;
10565;SDS011;5331;48.148;16.326;2023-02-18T11:13:14;1.30;;;1.20;;
10565;SDS011;5331;48.148;16.326;2023-02-18T11:15:53;1.50;;;1.50;;
10565;SDS011;5331;48.148;16.326;2023-02-18T11:18:36;1.90;;;1.80;;
10565;SDS011;5331;48.148;16.326;2023-02-18T11:21:05;1.77;;;1.67;;
10565;SDS011;5331;48.148;16.326;2023-02-18T11:23:46;1.63;;;1.48;;
10565;SDS011;5331;48.148;16.326;2023-02-18T11:26:15;1.63;;;1.60;;
10565;SDS011;5331;48.148;16.326;2023-02-18T11:28:46;1.60;;;1.50;;
10565;SDS011;5331;48.148;16.326;2023-02-18T11:31:16;1.98;;;1.70;;
10565;SDS011;5331;48.148;16.326;2023-02-18T11:33:47;1.77;;;1.67;;
10565;SDS011;5331;48.148;16.326;2023-02-18T11:36:23;1.80;;;1.70;;
10565;SDS011;5331;48.148;16.326;2023-02-18T11:38:55;1.95;;;1.70;;
10565;SDS011;5331;48.148;16.326;2023-02-18T11:41:33;1.83;;;1.73;;
10565;SDS011;5331;48.148;16.326;2023-02-18T11:44:03;2.40;;;2.20;;
10565;SDS011;5331;48.148;16.326;2023-02-18T11:46:34;3.75;;;3.33;;
10565;SDS011;5331;48.148;16.326;2023-02-18T11:49:10;2.25;;;2.05;;
10565;SDS011;5331;48.148;16.326;2023-02-18T11:51:48;2.72;;;2.08;;
10565;SDS011;5331;48.148;16.326;2023-02-18T11:54:21;1.90;;;1.80;;
10565;SDS011;5331;48.148;16.326;2023-02-18T11:56:53;1.65;;;1.60;;
10565;SDS011;5331;48.148;16.326;2023-02-18T11:59:22;1.83;;;1.60;;
10565;SDS011;5331;48.148;16.326;2023-02-18T12:01:50;1.60;;;1.50;;
10565;SDS011;5331;48.148;16.326;2023-02-18T12:04:20;1.70;;;1.60;;
10565;SDS011;5331;48.148;16.326;2023-02-18T12:06:54;1.63;;;1.55;;
10565;SDS011;5331;48.148;16.326;2023-02-18T12:09:34;1.70;;;1.60;;
10565;SDS011;5331;48.148;16.326;2023-02-18T12:12:05;1.77;;;1.60;;
10565;SDS011;5331;48.148;16.326;2023-02-18T12:14:39;1.45;;;1.35;;
10565;SDS011;5331;48.148;16.326;2023-02-18T12:17:21;1.50;;;1.40;;
10565;SDS011;5331;48.148;16.326;2023-02-18T12:23:03;1.25;;;1.25;;
10565;SDS011;5331;48.148;16.326;2023-02-18T12:25:46;1.60;;;1.50;;
10565;SDS011;5331;48.148;16.326;2023-02-18T12:28:28;1.30;;;1.30;;
10565;SDS011;5331;48.148;16.326;2023-02-18T12:31:14;1.60;;;1.50;;
10565;SDS011;5331;48.148;16.326;2023-02-18T12:34:13;1.50;;;1.40;;
10565;SDS011;5331;48.148;16.326;2023-02-18T12:36:56;1.50;;;1.40;;
10565;SDS011;5331;48.148;16.326;2023-02-18T12:39:36;1.60;;;1.50;;
10565;SDS011;5331;48.148;16.326;2023-02-18T12:42:28;1.85;;;1.73;;
10565;SDS011;5331;48.148;16.326;2023-02-18T12:45:15;1.20;;;1.20;;
10565;SDS011;5331;48.148;16.326;2023-02-18T12:48:00;1.30;;;1.30;;
10565;SDS011;5331;48.148;16.326;2023-02-18T12:50:48;1.20;;;1.20;;
10565;SDS011;5331;48.148;16.326;2023-02-18T12:53:36;1.50;;;1.40;;
10565;SDS011;5331;48.148;16.326;2023-02-18T12:56:40;1.30;;;1.20;;
10565;SDS011;5331;48.148;16.326;2023-02-18T12:59:19;1.30;;;1.20;;
10565;SDS011;5331;48.148;16.326;2023-02-18T13:02:05;1.25;;;1.25;;
10565;SDS011;5331;48.148;16.326;2023-02-18T13:04:49;1.38;;;1.30;;
10565;SDS011;5331;48.148;16.326;2023-02-18T13:10:20;1.40;;;1.30;;
10565;SDS011;5331;48.148;16.326;2023-02-18T13:13:14;1.30;;;1.20;;
10565;SDS011;5331;48.148;16.326;2023-02-18T13:15:45;1.02;;;1.02;;
10565;SDS011;5331;48.148;16.326;2023-02-18T13:18:19;1.10;;;1.10;;
10565;SDS011;5331;48.148;16.326;2023-02-18T13:20:53;1.33;;;1.20;;
10565;SDS011;5331;48.148;16.326;2023-02-18T13:23:25;1.23;;;1.10;;
10565;SDS011;5331;48.148;16.326;2023-02-18T13:25:56;1.13;;;1.13;;
10565;SDS011;5331;48.148;16.326;2023-02-18T13:28:28;1.38;;;1.25;;
10565;SDS011;5331;48.148;16.326;2023-02-18T13:31:04;1.40;;;1.30;;
10565;SDS011;5331;48.148;16.326;2023-02-18T13:33:43;1.67;;;1.58;;
10565;SDS011;5331;48.148;16.326;2023-02-18T13:36:20;1.20;;;1.20;;
10565;SDS011;5331;48.148;16.326;2023-02-18T13:39:11;1.10;;;1.10;;
10565;SDS011;5331;48.148;16.326;2023-02-18T13:41:44;1.13;;;1.13;;
10565;SDS011;5331;48.148;16.326;2023-02-18T13:47:06;1.60;;;1.50;;
10565;SDS011;5331;48.148;16.326;2023-02-18T13:49:34;1.20;;;1.20;;
10565;SDS011;5331;48.148;16.326;2023-02-18T13:52:05;1.17;;;1.17;;
10565;SDS011;5331;48.148;16.326;2023-02-18T13:54:42;1.00;;;1.00;;
10565;SDS011;5331;48.148;16.326;2023-02-18T13:57:13;1.00;;;1.00;;
10565;SDS011;5331;48.148;16.326;2023-02-18T13:59:45;1.02;;;1.02;;
10565;SDS011;5331;48.148;16.326;2023-02-18T14:02:30;2.00;;;1.90;;
10565;SDS011;5331;48.148;16.326;2023-02-18T14:05:13;1.23;;;1.13;;
10565;SDS011;5331;48.148;16.326;2023-02-18T14:07:48;1.10;;;1.10;;
10565;SDS011;5331;48.148;16.326;2023-02-18T14:10:24;1.00;;;1.00;;
10565;SDS011;5331;48.148;16.326;2023-02-18T14:15:53;1.98;;;1.20;;
10565;SDS011;5331;48.148;16.326;2023-02-18T14:18:27;1.00;;;1.00;;
10565;SDS011;5331;48.148;16.326;2023-02-18T14:24:01;1.25;;;1.23;;
10565;SDS011;5331;48.148;16.326;2023-02-18T14:26:31;1.10;;;1.00;;
10565;SDS011;5331;48.148;16.326;2023-02-18T14:29:03;1.05;;;0.90;;
10565;SDS011;5331;48.148;16.326;2023-02-18T14:31:41;1.08;;;1.08;;
10565;SDS011;5331;48.148;16.326;2023-02-18T14:34:28;2.45;;;1.00;;
10565;SDS011;5331;48.148;16.326;2023-02-18T14:40:43;1.05;;;1.05;;
10565;SDS011;5331;48.148;16.326;2023-02-18T14:43:43;1.10;;;1.10;;
10565;SDS011;5331;48.148;16.326;2023-02-18T14:46:31;1.10;;;1.10;;
10565;SDS011;5331;48.148;16.326;2023-02-18T14:49:09;1.25;;;1.20;;
10565;SDS011;5331;48.148;16.326;2023-02-18T14:51:54;1.08;;;1.08;;
10565;SDS011;5331;48.148;16.326;2023-02-18T14:54:24;1.10;;;1.10;;
10565;SDS011;5331;48.148;16.326;2023-02-18T14:56:54;1.08;;;1.08;;
10565;SDS011;5331;48.148;16.326;2023-02-18T14:59:24;0.90;;;0.90;;
10565;SDS011;5331;48.148;16.326;2023-02-18T15:01:54;1.00;;;1.00;;
10565;SDS011;5331;48.148;16.326;2023-02-18T15:04:23;1.20;;;1.02;;
10565;SDS011;5331;48.148;16.326;2023-02-18T15:06:59;1.27;;;1.27;;
10565;SDS011;5331;48.148;16.326;2023-02-18T15:09:27;1.10;;;1.10;;
10565;SDS011;5331;48.148;16.326;2023-02-18T15:11:55;1.00;;;1.00;;
10565;SDS011;5331;48.148;16.326;2023-02-18T15:14:26;1.83;;;1.10;;
10565;SDS011;5331;48.148;16.326;2023-02-18T15:16:56;1.25;;;1.10;;
10565;SDS011;5331;48.148;16.326;2023-02-18T15:19:25;1.00;;;1.00;;
10565;SDS011;5331;48.148;16.326;2023-02-18T15:21:56;2.15;;;1.10;;
10565;SDS011;5331;48.148;16.326;2023-02-18T15:24:36;0.90;;;0.90;;
10565;SDS011;5331;48.148;16.326;2023-02-18T15:27:10;1.17;;;1.00;;
10565;SDS011;5331;48.148;16.326;2023-02-18T15:29:40;1.38;;;0.93;;
10565;SDS011;5331;48.148;16.326;2023-02-18T15:32:15;1.42;;;1.10;;
10565;SDS011;5331;48.148;16.326;2023-02-18T15:34:43;1.35;;;1.25;;
10565;SDS011;5331;48.148;16.326;2023-02-18T15:37:11;4.07;;;1.20;;